Time;durP1;ratioP1;P1;durP2;ratioP2;P2;SDS_P1;SDS_P2;PMS_P1;PMS_P2;Temp;Humidity;BMP_temperature;BMP_pressure;BME280_temperature;BME280_humidity;BME280_pressure;Samples;Min_cycle;Max_cycle;Signal;HPM_P1;HPM_P2
2023/01/10 00:01:16;;;;;;;0.10;0.10;;;;;;;7.92;65.67;100257.72;7357999;19;20010;-58
2023/01/10 00:03:41;;;;;;;0.10;0.10;;;;;;;7.92;65.57;100252.53;7359256;19;20534;-58
2023/01/10 00:06:07;;;;;;;0.08;0.08;;;;;;;7.94;65.63;100247.28;7355776;19;20022;-57
2023/01/10 00:08:32;;;;;;;0.00;0.00;;;;;;;7.89;65.58;100242.16;7362169;19;20026;-56
2023/01/10 00:13:22;;;;;;;0.00;0.00;;;;;;;7.97;65.48;100250.69;7357313;19;20049;-58
2023/01/10 00:13:46;;;;;;;0.10;0.10;;;;;;;7.97;65.39;100242.91;7360457;19;20502;-58
2023/01/10 00:16:11;;;;;;;0.05;0.05;;;;;;;7.99;65.82;100230.72;7358671;19;20017;-58
2023/01/10 00:18:37;;;;;;;0.00;0.00;;;;;;;8.01;65.32;100225.50;7353352;19;20040;-58
2023/01/10 00:21:02;;;;;;;0.10;0.10;;;;;;;8.00;65.46;100219.41;7359384;19;20015;-58
2023/01/10 00:23:28;;;;;;;0.10;0.10;;;;;;;7.99;65.56;100215.09;7347308;19;20018;-57
2023/01/10 00:25:53;;;;;;;0.05;0.05;;;;;;;8.02;65.53;100220.25;7352369;19;20006;-58
2023/01/10 00:28:18;;;;;;;0.10;0.10;;;;;;;8.02;65.71;100217.66;7347027;19;20366;-58
2023/01/10 00:30:56;;;;;;;0.00;0.00;;;;;;;7.98;65.61;100205.59;7330151;19;20024;-58
2023/01/10 00:33:21;;;;;;;0.00;0.00;;;;;;;8.03;65.55;100213.31;7343218;19;20018;-58
2023/01/10 00:35:47;;;;;;;0.00;0.00;;;;;;;8.05;65.50;100206.31;7349737;19;24678;-57
2023/01/10 00:38:13;;;;;;;0.00;0.00;;;;;;;8.06;65.51;100203.72;7358186;19;20038;-58
2023/01/10 00:40:39;;;;;;;0.10;0.10;;;;;;;8.07;65.15;100196.75;7359174;19;20061;-56
2023/01/10 00:45:49;;;;;;;0.10;0.10;;;;;;;8.01;65.46;100182.16;7358960;19;20035;-58
2023/01/10 00:48:14;;;;;;;0.05;0.05;;;;;;;8.10;65.45;100188.03;7359920;19;20010;-56
2023/01/10 00:50:40;;;;;;;0.00;0.00;;;;;;;8.10;65.25;100188.88;7360940;19;20013;-57
2023/01/10 00:53:06;;;;;;;0.00;0.00;;;;;;;8.06;65.23;100175.09;7359369;19;20010;-58
2023/01/10 00:55:32;;;;;;;0.00;0.00;;;;;;;8.10;65.12;100177.63;7361640;19;20010;-57
2023/01/10 00:57:58;;;;;;;0.10;0.10;;;;;;;8.12;64.71;100170.66;7358554;19;20019;-57
2023/01/10 01:00:23;;;;;;;0.00;0.00;;;;;;;8.12;65.20;100165.47;7360055;19;20014;-58
2023/01/10 01:02:50;;;;;;;0.00;0.00;;;;;;;8.13;65.10;100159.38;7359545;19;20030;-58
2023/01/10 01:05:16;;;;;;;0.10;0.10;;;;;;;8.01;64.88;100132.75;7356289;19;20085;-57
2023/01/10 01:07:41;;;;;;;0.00;0.00;;;;;;;8.13;64.90;100141.16;7359555;19;23266;-58
2023/01/10 01:10:26;;;;;;;0.10;0.10;;;;;;;8.12;64.84;100129.91;7359428;19;20093;-59
2023/01/10 01:13:09;;;;;;;0.00;0.00;;;;;;;8.17;65.05;100132.41;7360601;19;20022;-58
2023/01/10 01:15:34;;;;;;;0.00;0.00;;;;;;;8.16;64.96;100115.06;7358875;19;20006;-58
2023/01/10 01:18:00;;;;;;;0.00;0.00;;;;;;;8.07;64.89;100085.81;7360931;19;22199;-58
2023/01/10 01:20:26;;;;;;;0.00;0.00;;;;;;;8.19;64.53;100099.41;7360248;19;20007;-58
2023/01/10 01:22:52;;;;;;;0.00;0.00;;;;;;;8.22;64.59;100099.34;7357070;19;20518;-58
2023/01/10 01:25:17;;;;;;;0.10;0.10;;;;;;;8.25;64.90;100099.28;7355555;19;20012;-58
2023/01/10 01:27:43;;;;;;;0.10;0.10;;;;;;;8.29;64.24;100096.56;7358921;19;20014;-58
2023/01/10 01:30:09;;;;;;;0.00;0.00;;;;;;;8.33;64.40;100092.16;7358355;19;20025;-58
2023/01/10 01:32:35;;;;;;;0.00;0.00;;;;;;;8.37;63.97;100078.22;7359189;19;20034;-57
2023/01/10 01:35:00;;;;;;;0.00;0.00;;;;;;;8.42;64.00;100072.91;7356230;19;20146;-57
2023/01/10 01:37:26;;;;;;;0.00;0.00;;;;;;;8.44;63.41;100066.78;7358403;19;20032;-56
2023/01/10 01:39:51;;;;;;;0.00;0.00;;;;;;;8.48;63.75;100059.75;7365909;19;20010;-58
2023/01/10 01:42:31;;;;;;;0.10;0.10;;;;;;;8.55;63.98;100054.34;7366166;19;22107;-59
2023/01/10 01:45:21;;;;;;;0.00;0.00;;;;;;;8.58;64.12;100056.88;7364524;19;20010;-58
2023/01/10 01:47:55;;;;;;;0.00;0.00;;;;;;;8.61;64.02;100047.28;7363734;19;20719;-58
2023/01/10 01:50:26;;;;;;;0.08;0.08;;;;;;;8.61;63.91;100034.25;7363493;19;20019;-57
2023/01/10 01:52:56;;;;;;;0.00;0.00;;;;;;;8.64;63.89;100034.19;7365558;19;20746;-58
2023/01/10 01:55:24;;;;;;;0.00;0.00;;;;;;;8.67;64.10;100031.50;7363640;19;20650;-58
2023/01/10 01:57:53;;;;;;;0.00;0.00;;;;;;;8.39;63.94;99972.38;7363915;19;20022;-57
2023/01/10 02:00:18;;;;;;;0.00;0.00;;;;;;;8.69;63.86;100021.91;7361104;19;20006;-58
2023/01/10 02:02:53;;;;;;;0.00;0.00;;;;;;;8.73;64.19;100016.59;7364772;19;20043;-58
2023/01/10 02:05:21;;;;;;;0.10;0.10;;;;;;;8.72;64.00;100008.84;7364330;19;20541;-58
2023/01/10 02:07:51;;;;;;;0.10;0.10;;;;;;;8.63;64.32;99980.44;7361115;19;20022;-58
2023/01/10 02:10:24;;;;;;;0.10;0.10;;;;;;;8.76;64.63;99992.22;7362136;19;20394;-58
2023/01/10 02:12:52;;;;;;;0.00;0.00;;;;;;;8.72;64.30;99980.22;7366189;19;20003;-58
2023/01/10 02:15:18;;;;;;;0.10;0.10;;;;;;;8.75;64.70;99978.34;7364261;19;20026;-58
2023/01/10 02:17:47;;;;;;;0.00;0.00;;;;;;;8.77;64.60;99973.13;7363756;19;20010;-57
2023/01/10 02:20:18;;;;;;;0.00;0.00;;;;;;;8.79;64.71;99960.91;7365703;19;20051;-58
2023/01/10 02:23:14;;;;;;;0.10;0.10;;;;;;;8.81;65.09;99948.69;7355530;19;20022;-58
2023/01/10 02:25:54;;;;;;;0.00;0.00;;;;;;;8.79;65.12;99947.91;7264048;19;2004509;-58
2023/01/10 02:28:43;;;;;;;0.00;0.00;;;;;;;8.77;65.58;99947.09;7364330;19;20018;-58
2023/01/10 02:31:11;;;;;;;0.10;0.10;;;;;;;8.74;66.02;99932.41;7363020;19;20011;-58
2023/01/10 02:33:46;;;;;;;0.00;0.00;;;;;;;8.73;65.39;99919.44;7364399;19;20017;-58
2023/01/10 02:36:38;;;;;;;0.00;0.00;;;;;;;8.69;66.48;99910.84;7361586;19;20018;-58
2023/01/10 02:39:22;;;;;;;0.00;0.00;;;;;;;8.66;66.08;99902.25;7262141;19;2004457;-57
2023/01/10 02:41:59;;;;;;;0.00;0.00;;;;;;;8.63;66.25;99902.38;7364422;19;20102;-58
2023/01/10 02:44:36;;;;;;;0.00;0.00;;;;;;;8.44;66.90;99866.44;7361073;19;20585;-57
2023/01/10 02:47:03;;;;;;;0.00;0.00;;;;;;;8.52;67.56;99895.72;7343649;19;20048;-58
2023/01/10 02:49:29;;;;;;;0.00;0.00;;;;;;;8.46;67.58;99884.59;7361442;19;20015;-57
2023/01/10 02:51:55;;;;;;;0.00;0.00;;;;;;;8.31;68.45;99859.81;7363241;19;20050;-57
2023/01/10 02:54:29;;;;;;;0.00;0.00;;;;;;;8.38;68.28;99866.59;7364922;19;20043;-57
2023/01/10 02:57:16;;;;;;;0.00;0.00;;;;;;;8.40;67.41;99870.00;7362220;19;20010;-57
2023/01/10 03:00:08;;;;;;;0.00;0.00;;;;;;;8.34;68.54;99859.75;7344556;19;20037;-56
2023/01/10 03:03:00;;;;;;;0.03;0.03;;;;;;;8.30;69.08;99850.31;7260025;19;2004412;-57
2023/01/10 03:05:50;;;;;;;0.00;0.00;;;;;;;8.26;69.47;99825.25;7259282;19;2004531;-58
2023/01/10 03:08:15;;;;;;;0.00;0.00;;;;;;;8.21;70.06;99824.53;7259733;19;2004561;-55
2023/01/10 03:10:55;;;;;;;0.00;0.00;;;;;;;8.21;70.33;99803.72;7362925;19;20759;-57
2023/01/10 03:13:47;;;;;;;0.00;0.00;;;;;;;8.18;68.71;99786.47;7362184;19;20010;-57
2023/01/10 03:16:16;;;;;;;0.00;0.00;;;;;;;8.15;70.26;99775.31;7258448;19;2004425;-58
2023/01/10 03:18:52;;;;;;;0.00;0.00;;;;;;;8.12;70.10;99765.00;7363283;19;20010;-58
2023/01/10 03:21:20;;;;;;;0.05;0.05;;;;;;;8.06;70.63;99755.63;7359973;19;20009;-57
2023/01/10 03:23:49;;;;;;;0.00;0.00;;;;;;;8.05;70.83;99759.09;7361471;19;20052;-58
2023/01/10 03:26:18;;;;;;;0.00;0.00;;;;;;;7.99;70.60;99744.53;7358870;19;20022;-55
2023/01/10 03:28:50;;;;;;;0.10;0.10;;;;;;;7.96;70.31;99733.38;7362124;19;20688;-58
2023/01/10 03:31:30;;;;;;;0.10;0.10;;;;;;;7.94;70.33;99720.41;7358574;19;20930;-58
2023/01/10 03:33:56;;;;;;;0.10;0.10;;;;;;;7.83;71.59;99700.81;7360961;19;20010;-58
2023/01/10 03:36:55;;;;;;;0.00;0.00;;;;;;;7.91;69.04;99701.47;7360611;19;20014;-56
2023/01/10 03:39:33;;;;;;;0.10;0.10;;;;;;;7.90;70.94;99692.78;7259652;19;2004036;-57
2023/01/10 03:42:04;;;;;;;;;;;;;;;7.89;68.34;99691.09;7362821;19;20015;-58
2023/01/10 03:44:51;;;;;;;0.00;0.00;;;;;;;7.87;70.05;99672.09;7358175;19;19942;-58
2023/01/10 03:47:26;;;;;;;0.00;0.00;;;;;;;7.84;71.02;99659.16;7358365;19;20589;-57
2023/01/10 03:50:22;;;;;;;0.00;0.00;;;;;;;7.83;69.38;99649.66;7362391;19;20923;-57
2023/01/10 03:52:48;;;;;;;0.00;0.00;;;;;;;7.78;71.24;99646.34;7260655;19;2004227;-58
2023/01/10 03:55:19;;;;;;;0.00;0.00;;;;;;;7.79;70.95;99630.69;7356876;19;20021;-59
2023/01/10 03:57:45;;;;;;;0.00;0.00;;;;;;;7.77;71.33;99616.06;7360611;19;20050;-58
2023/01/10 04:00:12;;;;;;;0.00;0.00;;;;;;;7.77;71.55;99606.53;7355513;19;20006;-58
2023/01/10 04:02:38;;;;;;;0.00;0.00;;;;;;;7.76;71.39;99596.19;7359850;19;20017;-57
2023/01/10 04:05:04;;;;;;;0.00;0.00;;;;;;;7.73;70.37;99570.28;7343999;19;20014;-58
2023/01/10 04:07:30;;;;;;;0.10;0.10;;;;;;;7.77;70.53;99566.69;7359624;19;20031;-58
2023/01/10 04:09:56;;;;;;;0.00;0.00;;;;;;;7.70;71.48;99540.00;7357100;19;20019;-58
2023/01/10 04:12:21;;;;;;;0.00;0.00;;;;;;;7.78;71.00;99547.59;7358353;19;20014;-58
2023/01/10 04:14:47;;;;;;;0.00;0.00;;;;;;;7.77;71.88;99530.31;7361365;19;20011;-58
2023/01/10 04:17:13;;;;;;;0.00;0.00;;;;;;;7.75;70.99;99506.09;7359579;19;20007;-58
2023/01/10 04:19:39;;;;;;;0.00;0.00;;;;;;;7.74;71.53;99486.22;7360377;19;21333;-58
2023/01/10 04:22:04;;;;;;;0.05;0.05;;;;;;;7.78;72.36;99474.84;7345087;19;20308;-59
2023/01/10 04:24:30;;;;;;;0.10;0.10;;;;;;;7.80;71.35;99465.22;7350348;19;20038;-58
2023/01/10 04:26:56;;;;;;;0.00;0.00;;;;;;;7.67;72.25;99456.13;7358928;19;20028;-58
2023/01/10 04:29:21;;;;;;;0.10;0.10;;;;;;;7.69;72.45;99449.97;7356863;19;20050;-58
2023/01/10 04:31:46;;;;;;;0.10;0.10;;;;;;;7.80;72.22;99467.81;7356462;19;20018;-59
2023/01/10 04:34:12;;;;;;;0.10;0.10;;;;;;;7.79;72.49;99455.75;7361799;19;20883;-59
2023/01/10 04:36:37;;;;;;;0.00;0.00;;;;;;;7.82;72.21;99445.25;7359067;19;20014;-58
2023/01/10 04:39:03;;;;;;;0.00;0.00;;;;;;;7.83;72.98;99428.75;7361298;19;20042;-58
2023/01/10 04:41:29;;;;;;;0.10;0.10;;;;;;;7.85;72.91;99426.94;7361109;19;20038;-59
2023/01/10 04:43:54;;;;;;;0.00;0.00;;;;;;;7.86;73.41;99420.88;7359442;19;20061;-58
2023/01/10 04:46:20;;;;;;;0.00;0.00;;;;;;;7.88;72.67;99403.47;7359998;19;20014;-59
2023/01/10 04:48:45;;;;;;;0.10;0.10;;;;;;;7.89;73.75;99404.31;7362109;19;20749;-59
2023/01/10 04:51:11;;;;;;;0.03;0.03;;;;;;;7.90;72.93;99401.66;7357716;19;20503;-58
2023/01/10 04:53:36;;;;;;;0.08;0.08;;;;;;;7.93;73.62;99406.78;7361423;19;20581;-59
2023/01/10 04:56:03;;;;;;;0.10;0.10;;;;;;;7.94;73.84;99392.03;7355898;19;20025;-59
2023/01/10 04:58:31;;;;;;;0.10;0.10;;;;;;;7.97;73.08;99387.59;7360964;19;20027;-59
2023/01/10 05:00:57;;;;;;;0.00;0.00;;;;;;;8.00;73.76;99379.66;7361353;19;20060;-58
2023/01/10 05:03:22;;;;;;;0.00;0.00;;;;;;;7.99;74.38;99370.16;7361298;19;20093;-59
2023/01/10 05:05:47;;;;;;;0.10;0.10;;;;;;;8.00;74.28;99358.88;7361204;19;20026;-58
2023/01/10 05:08:13;;;;;;;0.10;0.10;;;;;;;8.06;74.15;99350.03;7358065;19;20010;-58
2023/01/10 05:10:38;;;;;;;0.00;0.00;;;;;;;8.08;74.76;99337.81;7361311;19;20030;-57
2023/01/10 05:13:04;;;;;;;0.03;0.03;;;;;;;8.11;74.42;99326.44;7359371;19;20822;-57
2023/01/10 05:15:29;;;;;;;0.00;0.00;;;;;;;8.06;74.78;99314.50;7362924;19;20010;-57
2023/01/10 05:17:58;;;;;;;0.10;0.10;;;;;;;8.16;74.81;99319.34;7358468;19;20014;-58
2023/01/10 05:20:24;;;;;;;0.00;0.00;;;;;;;8.06;74.96;99291.09;7359746;19;20085;-58
2023/01/10 05:22:49;;;;;;;0.08;0.08;;;;;;;8.21;74.77;99307.03;7360189;19;20105;-58
2023/01/10 05:25:15;;;;;;;0.10;0.10;;;;;;;8.23;74.80;99284.44;7355741;19;20023;-56
2023/01/10 05:27:42;;;;;;;0.00;0.00;;;;;;;8.26;74.75;99279.09;7358563;19;20105;-57
2023/01/10 05:30:10;;;;;;;0.00;0.00;;;;;;;8.30;75.17;99259.91;7359797;19;20799;-57
2023/01/10 05:32:35;;;;;;;0.00;0.00;;;;;;;8.32;75.03;99263.31;7356936;19;20039;-58
2023/01/10 05:35:01;;;;;;;0.10;0.10;;;;;;;8.33;75.31;99229.44;7359923;19;20860;-57
2023/01/10 05:37:26;;;;;;;0.00;0.00;;;;;;;8.38;74.78;99229.28;7359093;19;20027;-57
2023/01/10 05:39:52;;;;;;;0.00;0.00;;;;;;;8.40;74.93;99224.88;7360507;19;20424;-57
2023/01/10 05:42:17;;;;;;;0.10;0.10;;;;;;;8.41;75.20;99221.34;7357240;19;20034;-59
2023/01/10 05:44:42;;;;;;;0.10;0.10;;;;;;;8.45;75.64;99207.34;7361370;19;20014;-57
2023/01/10 05:47:08;;;;;;;0.00;0.00;;;;;;;8.48;75.20;99196.81;7355987;19;20033;-57
2023/01/10 05:49:33;;;;;;;0.10;0.10;;;;;;;8.49;75.44;99172.50;7358803;19;20039;-58
2023/01/10 05:51:59;;;;;;;0.10;0.10;;;;;;;8.53;75.70;99171.47;7361235;19;21754;-57
2023/01/10 05:54:24;;;;;;;0.10;0.10;;;;;;;8.56;75.31;99163.53;7355814;19;20021;-57
2023/01/10 05:56:49;;;;;;;0.00;0.00;;;;;;;8.60;75.38;99158.22;7356947;19;20007;-57
2023/01/10 05:59:15;;;;;;;0.10;0.10;;;;;;;8.63;75.18;99151.16;7357567;19;20011;-57
2023/01/10 06:01:40;;;;;;;0.00;0.00;;;;;;;8.66;75.94;99138.00;7359004;19;20478;-58
2023/01/10 06:04:06;;;;;;;0.00;0.00;;;;;;;8.71;75.24;99137.81;7356692;19;20019;-58
2023/01/10 06:06:33;;;;;;;0.00;0.00;;;;;;;8.74;75.54;99122.09;7356221;19;20022;-59
2023/01/10 06:08:58;;;;;;;0.00;0.00;;;;;;;8.72;75.73;99097.91;7359501;19;20015;-57
2023/01/10 06:11:28;;;;;;;0.00;0.00;;;;;;;8.80;75.36;99098.41;7356202;19;20033;-58
2023/01/10 06:13:57;;;;;;;0.00;0.00;;;;;;;8.83;75.67;99088.72;7359863;19;20406;-57
2023/01/10 06:16:23;;;;;;;0.00;0.00;;;;;;;8.87;75.92;99079.06;7355795;19;20026;-57
2023/01/10 06:18:49;;;;;;;0.00;0.00;;;;;;;8.84;75.91;99073.97;7358116;19;20403;-59
2023/01/10 06:21:14;;;;;;;0.00;0.00;;;;;;;8.92;76.33;99066.69;7357624;19;20048;-58
2023/01/10 06:23:40;;;;;;;0.10;0.10;;;;;;;8.96;75.86;99060.41;7359605;19;20049;-55
2023/01/10 06:26:06;;;;;;;0.00;0.00;;;;;;;9.00;75.99;99053.34;7360990;19;20638;-58
2023/01/10 06:28:31;;;;;;;0.10;0.10;;;;;;;9.03;75.61;99048.00;7362593;19;20550;-57
2023/01/10 06:30:57;;;;;;;0.00;0.00;;;;;;;9.05;75.90;99052.22;7362624;19;20044;-58
2023/01/10 06:33:23;;;;;;;0.00;0.00;;;;;;;9.09;75.90;99032.97;7364866;19;20014;-57
2023/01/10 06:35:48;;;;;;;0.10;0.10;;;;;;;9.08;76.19;99020.84;7362109;19;20010;-58
2023/01/10 06:38:14;;;;;;;0.00;0.00;;;;;;;9.13;75.87;99022.41;7365636;19;20013;-57
2023/01/10 06:40:39;;;;;;;0.10;0.10;;;;;;;9.17;76.39;99013.53;7363665;19;20014;-57
2023/01/10 06:43:05;;;;;;;0.00;0.00;;;;;;;9.20;76.29;99014.25;7363457;19;20053;-57
2023/01/10 06:45:30;;;;;;;0.00;0.00;;;;;;;9.24;76.08;99004.56;7364143;19;20007;-57
2023/01/10 06:47:56;;;;;;;0.00;0.00;;;;;;;9.24;76.24;98997.59;7360808;19;20819;-57
2023/01/10 06:50:21;;;;;;;0.00;0.00;;;;;;;9.29;76.44;98989.56;7364490;19;20002;-58
2023/01/10 06:52:55;;;;;;;0.00;0.00;;;;;;;9.34;76.31;98987.59;7361842;19;20018;-55
2023/01/10 06:55:20;;;;;;;0.00;0.00;;;;;;;9.34;76.81;98982.41;7363816;19;20030;-57
2023/01/10 06:57:45;;;;;;;0.08;0.08;;;;;;;9.37;76.24;98979.63;7354038;19;20014;-58
2023/01/10 07:00:11;;;;;;;0.00;0.00;;;;;;;9.34;76.74;98966.75;7360526;19;20955;-58
2023/01/10 07:02:36;;;;;;;0.00;0.00;;;;;;;9.42;76.47;98962.03;7362387;19;20011;-58
2023/01/10 07:05:02;;;;;;;0.03;0.03;;;;;;;9.41;76.49;98949.94;7359191;19;20473;-58
2023/01/10 07:07:27;;;;;;;0.00;0.00;;;;;;;9.48;76.65;98951.34;7361966;19;20608;-57
2023/01/10 07:09:53;;;;;;;0.00;0.00;;;;;;;9.52;76.59;98947.66;7361077;19;20006;-57
2023/01/10 07:12:18;;;;;;;0.10;0.10;;;;;;;9.57;76.77;98944.84;7363892;19;20012;-58
2023/01/10 07:14:44;;;;;;;0.10;0.10;;;;;;;9.66;77.44;98938.38;7358646;19;20010;-58
2023/01/10 07:17:09;;;;;;;0.00;0.00;;;;;;;9.77;77.22;98925.66;7361892;19;20495;-58
2023/01/10 07:19:34;;;;;;;0.00;0.00;;;;;;;9.91;77.49;98944.09;7360640;19;20017;-58
2023/01/10 07:22:00;;;;;;;0.10;0.10;;;;;;;10.06;77.97;98914.69;7363022;19;20037;-58
2023/01/10 07:24:25;;;;;;;0.10;0.10;;;;;;;10.21;78.40;98912.25;7360481;19;20155;-58
2023/01/10 07:26:54;;;;;;;0.00;0.00;;;;;;;10.41;78.51;98914.72;7361396;19;20015;-58
2023/01/10 07:29:19;;;;;;;0.10;0.10;;;;;;;10.55;78.62;98925.31;7359822;19;20030;-57
2023/01/10 07:31:45;;;;;;;0.10;0.10;;;;;;;10.71;79.01;98887.97;7360928;19;20011;-57
2023/01/10 07:34:11;;;;;;;0.05;0.05;;;;;;;10.90;79.15;98896.53;7356877;19;20014;-58
2023/01/10 07:36:37;;;;;;;0.10;0.10;;;;;;;11.05;79.29;98893.09;7358015;19;20014;-58
2023/01/10 07:39:02;;;;;;;0.00;0.00;;;;;;;11.21;79.36;98889.66;7354930;19;20011;-59
2023/01/10 07:41:28;;;;;;;0.00;0.00;;;;;;;11.33;79.27;98875.94;7359216;19;20014;-58
2023/01/10 07:43:53;;;;;;;0.00;0.00;;;;;;;11.47;79.26;98868.16;7356727;19;20006;-59
2023/01/10 07:46:19;;;;;;;0.00;0.00;;;;;;;11.59;79.09;98870.09;7358929;19;20014;-59
2023/01/10 07:48:45;;;;;;;0.10;0.10;;;;;;;11.68;78.75;98856.50;7354055;19;20849;-59
2023/01/10 07:51:11;;;;;;;0.10;0.10;;;;;;;11.78;78.76;98848.13;7353994;19;20086;-58
2023/01/10 07:53:37;;;;;;;0.00;0.00;;;;;;;11.84;78.23;98856.50;7340673;19;20643;-58
2023/01/10 07:56:03;;;;;;;0.05;0.05;;;;;;;11.97;78.58;98861.88;7360843;19;20024;-58
2023/01/10 07:58:29;;;;;;;0.08;0.08;;;;;;;11.94;78.50;98830.66;7348048;19;20041;-59
2023/01/10 08:00:59;;;;;;;0.10;0.10;;;;;;;12.10;78.39;98823.59;7359620;19;20113;-59
2023/01/10 08:03:25;;;;;;;0.00;0.00;;;;;;;12.16;78.52;98825.84;7357951;19;20833;-58
2023/01/10 08:05:57;;;;;;;0.00;0.00;;;;;;;12.22;78.11;98823.81;7359859;19;20018;-58
2023/01/10 08:08:23;;;;;;;0.00;0.00;;;;;;;12.25;78.00;98819.22;7352430;19;20011;-58
2023/01/10 08:10:48;;;;;;;0.10;0.10;;;;;;;12.31;78.16;98818.00;7361775;19;20010;-59
2023/01/10 08:13:14;;;;;;;0.00;0.00;;;;;;;12.31;78.06;98815.41;7360298;19;20035;-59
2023/01/10 08:15:39;;;;;;;0.10;0.10;;;;;;;12.42;78.00;98823.47;7362661;19;20022;-57
2023/01/10 08:18:04;;;;;;;0.00;0.00;;;;;;;12.47;78.27;98829.28;7360344;19;20017;-58
2023/01/10 08:20:30;;;;;;;0.10;0.10;;;;;;;12.49;78.06;98816.09;7364057;19;20021;-59
2023/01/10 08:22:57;;;;;;;0.00;0.00;;;;;;;12.48;78.06;98833.56;7358949;19;20621;-61
2023/01/10 08:25:23;;;;;;;0.10;0.10;;;;;;;12.54;77.90;98812.25;7361982;19;20079;-58
2023/01/10 08:27:48;;;;;;;0.10;0.10;;;;;;;12.57;78.06;98813.81;7356930;19;20017;-59
2023/01/10 08:30:14;;;;;;;0.10;0.10;;;;;;;12.58;77.83;98810.28;7359825;19;21220;-59
2023/01/10 08:32:39;;;;;;;0.00;0.00;;;;;;;12.60;77.96;98809.25;7362267;19;20474;-58
2023/01/10 08:35:05;;;;;;;0.00;0.00;;;;;;;12.64;78.19;98841.34;7360911;19;20006;-57
2023/01/10 08:37:31;;;;;;;0.10;0.10;;;;;;;12.64;78.22;98826.47;7360458;19;20075;-59
2023/01/10 08:39:56;;;;;;;0.10;0.10;;;;;;;12.67;78.27;98809.69;7361155;19;20015;-58
2023/01/10 08:42:21;;;;;;;0.10;0.10;;;;;;;12.69;78.15;98813.94;7356083;19;20010;-59
2023/01/10 08:44:47;;;;;;;0.10;0.10;;;;;;;12.72;78.24;98813.75;7358947;19;20011;-58
2023/01/10 08:47:12;;;;;;;0.00;0.00;;;;;;;12.76;78.40;98803.06;7356611;19;20041;-59
2023/01/10 08:49:38;;;;;;;0.05;0.05;;;;;;;12.83;78.44;98809.63;7356912;19;20006;-58
2023/01/10 08:52:03;;;;;;;0.10;0.10;;;;;;;12.86;78.26;98798.94;7358718;19;20010;-59
2023/01/10 08:54:28;;;;;;;0.08;0.08;;;;;;;12.90;78.13;98814.38;7355000;19;20066;-58
2023/01/10 08:56:54;;;;;;;0.10;0.10;;;;;;;12.96;78.12;98800.03;7339279;19;21189;-59
2023/01/10 08:59:19;;;;;;;0.00;0.00;;;;;;;12.96;78.64;98798.25;7355437;19;20002;-58
2023/01/10 09:01:45;;;;;;;0.10;0.10;;;;;;;12.99;78.66;98795.47;7357230;19;20017;-58
2023/01/10 09:04:10;;;;;;;0.10;0.10;;;;;;;13.00;78.22;98801.53;7357447;19;20031;-59
2023/01/10 09:06:36;;;;;;;0.10;0.10;;;;;;;13.01;78.23;98787.50;7359915;19;21128;-59
2023/01/10 09:09:02;;;;;;;0.10;0.10;;;;;;;13.00;78.08;98788.44;7357389;19;20021;-59
2023/01/10 09:11:28;;;;;;;0.10;0.10;;;;;;;12.92;78.44;98772.34;7355255;19;20023;-59
2023/01/10 09:13:53;;;;;;;0.10;0.10;;;;;;;13.07;78.32;98786.25;7348616;19;20006;-58
2023/01/10 09:16:19;;;;;;;0.10;0.10;;;;;;;13.09;78.19;98800.13;7352512;19;20010;-59
2023/01/10 09:18:44;;;;;;;0.08;0.08;;;;;;;13.12;78.37;98792.06;7356157;19;20706;-58
2023/01/10 09:21:10;;;;;;;0.00;0.00;;;;;;;13.16;78.45;98791.75;7361427;19;20010;-59
2023/01/10 09:23:35;;;;;;;0.00;0.00;;;;;;;13.16;78.18;98789.13;7359102;19;20010;-59
2023/01/10 09:26:01;;;;;;;0.10;0.10;;;;;;;13.21;78.46;98781.84;7354452;19;20006;-59
2023/01/10 09:28:27;;;;;;;0.05;0.05;;;;;;;13.23;78.21;98776.53;7360899;19;20516;-59
2023/01/10 09:30:52;;;;;;;0.10;0.10;;;;;;;13.26;78.72;98783.34;7357036;19;20010;-59
2023/01/10 09:33:18;;;;;;;0.10;0.10;;;;;;;13.31;78.80;98776.03;7360629;19;20010;-59
2023/01/10 09:35:44;;;;;;;0.10;0.10;;;;;;;13.36;78.67;98773.94;7357724;19;20103;-59
2023/01/10 09:38:15;;;;;;;0.00;0.00;;;;;;;13.37;78.76;98783.50;7360212;19;20019;-59
2023/01/10 09:41:10;;;;;;;0.10;0.10;;;;;;;13.43;78.26;98778.72;7356536;19;20458;-59
2023/01/10 09:44:10;;;;;;;0.00;0.00;;;;;;;13.47;78.44;98784.56;7255580;19;2004307;-58
2023/01/10 09:47:08;;;;;;;0.00;0.00;;;;;;;13.51;78.62;98780.81;7254530;19;2004130;-59
2023/01/10 09:49:42;;;;;;;0.10;0.10;;;;;;;13.54;78.69;98791.13;7254506;19;2004441;-59
2023/01/10 09:52:34;;;;;;;0.10;0.10;;;;;;;13.50;78.50;98766.03;7356248;19;20404;-59
2023/01/10 09:55:16;;;;;;;0.10;0.10;;;;;;;13.58;78.56;98766.34;7255730;19;2004090;-59
2023/01/10 09:57:42;;;;;;;0.10;0.10;;;;;;;13.57;78.08;98748.94;7358362;19;20455;-59
2023/01/10 10:00:08;;;;;;;0.00;0.00;;;;;;;13.58;78.25;98758.47;7363318;19;26438;-59
2023/01/10 10:02:38;;;;;;;0.10;0.10;;;;;;;13.64;78.28;98749.41;7366605;19;20011;-59
2023/01/10 10:05:26;;;;;;;0.10;0.10;;;;;;;13.69;78.50;98757.81;7366909;19;20510;-59
2023/01/10 10:07:56;;;;;;;0.05;0.05;;;;;;;13.69;78.11;98748.16;7360406;19;20014;-59
2023/01/10 10:10:37;;;;;;;0.08;0.08;;;;;;;13.68;78.53;98751.69;7363129;19;20010;-59
2023/01/10 10:13:25;;;;;;;0.08;0.08;;;;;;;13.71;78.46;98735.75;7363853;19;20021;-59
2023/01/10 10:16:04;;;;;;;0.00;0.00;;;;;;;13.71;78.30;98746.25;7364679;19;20014;-59
2023/01/10 10:18:40;;;;;;;0.10;0.10;;;;;;;13.70;78.52;98731.47;7363092;19;20006;-59
2023/01/10 10:21:12;;;;;;;0.00;0.00;;;;;;;13.74;78.15;98735.56;7362568;19;20014;-59
2023/01/10 10:23:59;;;;;;;0.10;0.10;;;;;;;13.76;78.58;98738.91;7363960;19;20038;-59
2023/01/10 10:26:33;;;;;;;0.00;0.00;;;;;;;13.80;78.27;98738.72;7361385;19;20011;-59
2023/01/10 10:29:23;;;;;;;0.00;0.00;;;;;;;13.83;78.59;98743.75;7362611;19;20010;-59
2023/01/10 10:32:22;;;;;;;0.00;0.00;;;;;;;13.71;78.24;98737.53;7362177;19;20022;-59
2023/01/10 10:35:01;;;;;;;0.10;0.10;;;;;;;13.75;78.55;98739.84;7255600;19;2003973;-59
2023/01/10 10:37:31;;;;;;;0.10;0.10;;;;;;;13.81;78.54;98729.91;7355477;19;20018;-59
2023/01/10 10:40:05;;;;;;;0.03;0.03;;;;;;;13.88;78.86;98728.53;7359343;19;20030;-59
2023/01/10 10:42:35;;;;;;;0.10;0.10;;;;;;;13.90;78.67;98739.78;7360685;19;20021;-59
2023/01/10 10:45:14;;;;;;;0.00;0.00;;;;;;;13.92;78.60;98716.88;7363713;19;20009;-59
2023/01/10 10:47:48;;;;;;;0.10;0.10;;;;;;;13.95;78.66;98720.16;7362258;19;20458;-59
2023/01/10 10:50:14;;;;;;;0.10;0.10;;;;;;;13.95;78.96;98727.19;7361399;19;20076;-59
2023/01/10 10:52:39;;;;;;;0.00;0.00;;;;;;;13.98;78.92;98711.22;7363828;19;20169;-58
2023/01/10 10:55:11;;;;;;;0.03;0.03;;;;;;;14.01;78.86;98700.53;7363454;19;20039;-59
2023/01/10 10:57:37;;;;;;;0.05;0.05;;;;;;;14.03;78.46;98703.88;7361211;19;20011;-58
2023/01/10 11:00:06;;;;;;;0.10;0.10;;;;;;;14.11;78.93;98704.19;7363286;19;20026;-58
2023/01/10 11:02:40;;;;;;;0.10;0.10;;;;;;;14.13;78.65;98689.16;7357060;19;20011;-60
2023/01/10 11:05:14;;;;;;;0.10;0.10;;;;;;;14.16;78.50;98683.72;7357450;19;20039;-60
2023/01/10 11:07:40;;;;;;;0.10;0.10;;;;;;;14.11;78.37;98690.22;7353151;19;20482;-59
2023/01/10 11:10:35;;;;;;;0.00;0.00;;;;;;;14.24;78.49;98693.66;7361086;19;24544;-60
2023/01/10 11:13:04;;;;;;;0.10;0.10;;;;;;;14.24;78.67;98675.28;7259198;19;2004312;-59
2023/01/10 11:15:42;;;;;;;0.10;0.10;;;;;;;14.30;78.67;98674.03;7360847;19;20035;-60
2023/01/10 11:18:16;;;;;;;0.10;0.10;;;;;;;14.30;78.58;98684.53;7356634;19;20010;-59
2023/01/10 11:20:59;;;;;;;0.10;0.10;;;;;;;14.34;78.69;98659.72;7357215;19;20848;-59
2023/01/10 11:23:39;;;;;;;0.10;0.10;;;;;;;14.36;78.42;98658.69;7361378;19;20796;-59
2023/01/10 11:26:27;;;;;;;0.10;0.10;;;;;;;14.37;78.21;98636.72;7357931;19;20487;-58
2023/01/10 11:29:25;;;;;;;0.00;0.00;;;;;;;14.11;78.16;98593.94;7358834;19;20495;-59
2023/01/10 11:31:53;;;;;;;0.03;0.03;;;;;;;14.42;78.16;98636.41;7258909;19;2004625;-59
2023/01/10 11:34:30;;;;;;;0.10;0.10;;;;;;;14.47;78.44;98636.91;7363872;19;20042;-59
2023/01/10 11:37:16;;;;;;;0.10;0.10;;;;;;;14.47;78.15;98619.41;7363509;19;20010;-59
2023/01/10 11:39:42;;;;;;;0.05;0.05;;;;;;;14.49;77.97;98627.16;7362498;19;20006;-59
2023/01/10 11:42:23;;;;;;;0.00;0.00;;;;;;;14.54;78.40;98617.16;7361320;19;23891;-59
2023/01/10 11:44:48;;;;;;;0.10;0.10;;;;;;;14.53;78.01;98608.44;7364382;19;20031;-59
2023/01/10 11:47:19;;;;;;;0.10;0.10;;;;;;;14.53;77.86;98573.47;7364703;19;21708;-60
2023/01/10 11:49:46;;;;;;;0.10;0.10;;;;;;;14.57;78.28;98598.56;7353454;19;20553;-59
2023/01/10 11:52:28;;;;;;;0.10;0.10;;;;;;;14.52;78.00;98559.50;7360464;19;20061;-58